createdAt,value
2023-05-10T00:00:19.953Z,72.54
2023-05-10T00:03:23.980Z,73.56
2023-05-10T00:06:28.023Z,74.21
2023-05-10T00:09:32.137Z,72.86
2023-05-10T00:12:36.020Z,72.40
2023-05-10T00:15:39.819Z,73.26
2023-05-10T00:18:43.856Z,73.55
2023-05-10T00:21:47.992Z,74.42
2023-05-10T00:24:52.095Z,74.16
2023-05-10T00:27:55.957Z,73.19
2023-05-10T00:30:59.832Z,74.18
2023-05-10T00:34:03.942Z,74.36
2023-05-10T00:37:08.061Z,73.28
2023-05-10T00:40:11.930Z,73.74
2023-05-10T00:43:15.994Z,73.10
2023-05-10T00:46:20.025Z,74.01
2023-05-10T00:49:24.092Z,74.46
2023-05-10T00:52:28.017Z,73.96
2023-05-10T00:55:31.908Z,73.54
2023-05-10T00:58:35.957Z,74.56
2023-05-10T01:01:40.114Z,75.37
2023-05-10T01:04:44.288Z,75.43
2023-05-10T01:07:48.341Z,75.51
2023-05-10T01:10:52.386Z,75.00
2023-05-10T01:13:56.551Z,74.55
2023-05-10T01:17:00.392Z,75.18
2023-05-10T01:20:04.509Z,74.39
2023-05-10T01:23:08.515Z,73.47
2023-05-10T01:26:12.540Z,72.88
2023-05-10T01:29:16.468Z,73.29
2023-05-10T01:32:20.614Z,72.57
2023-05-10T01:35:24.670Z,73.46
2023-05-10T01:38:28.591Z,74.43
2023-05-10T01:41:32.493Z,72.65
2023-05-10T01:44:36.638Z,73.85
2023-05-10T01:47:40.773Z,73.82
2023-05-10T01:50:44.572Z,72.58
2023-05-10T01:53:48.573Z,73.16
2023-05-10T01:56:52.395Z,73.09
2023-05-10T01:59:56.583Z,74.16
2023-05-10T02:03:00.795Z,74.30
2023-05-10T02:06:04.814Z,73.57
2023-05-10T02:09:08.860Z,74.71
2023-05-10T02:12:12.992Z,73.27
2023-05-10T02:15:17.010Z,72.55
2023-05-10T02:18:20.947Z,70.89
2023-05-10T02:21:24.969Z,72.06
2023-05-10T02:24:28.908Z,72.14
2023-05-10T02:27:33.298Z,71.63
2023-05-10T02:30:37.298Z,72.76
2023-05-10T02:33:42.185Z,72.07
2023-05-10T02:36:46.014Z,71.95
2023-05-10T02:39:50.185Z,72.19
2023-05-10T02:46:17.204Z,71.70
2023-05-10T02:49:21.645Z,71.61
2023-05-10T02:52:25.392Z,72.00
2023-05-10T02:55:29.320Z,72.77
2023-05-10T02:58:33.276Z,74.26
2023-05-10T03:01:37.373Z,74.09
2023-05-10T03:04:41.432Z,75.74
2023-05-10T03:07:45.245Z,75.46
2023-05-10T03:10:49.150Z,74.40
2023-05-10T03:13:55.470Z,74.71
2023-05-10T03:16:59.527Z,74.02
2023-05-10T03:20:04.375Z,73.35
2023-05-10T03:23:08.275Z,75.04
2023-05-10T03:26:12.480Z,74.45
2023-05-10T03:29:16.914Z,74.67
2023-05-10T03:32:20.968Z,73.17
2023-05-10T03:35:24.765Z,73.47
2023-05-10T03:38:30.529Z,74.34
2023-05-10T03:41:34.980Z,74.47
2023-05-10T03:44:38.953Z,75.06
2023-05-10T03:47:42.980Z,74.50
2023-05-10T03:50:46.816Z,74.88
2023-05-10T03:53:55.266Z,74.34
2023-05-10T03:56:59.562Z,76.89
2023-05-10T04:00:03.315Z,76.66
2023-05-10T04:03:07.477Z,76.73
2023-05-10T04:06:11.345Z,75.93
2023-05-10T04:09:15.201Z,77.03
2023-05-10T04:12:19.195Z,76.05
2023-05-10T04:15:23.609Z,75.68
2023-05-10T04:27:38.551Z,75.30
2023-05-10T06:33:48.464Z,66.80
2023-05-10T07:14:46.448Z,62.61
2023-05-10T07:17:50.658Z,61.52
2023-05-10T07:21:04.734Z,62.93
2023-05-10T07:24:08.885Z,61.89
2023-05-10T07:27:17.088Z,64.86
2023-05-10T07:30:24.640Z,63.26
2023-05-10T07:33:28.805Z,61.63
2023-05-10T07:40:01.335Z,60.69
2023-05-10T07:46:39.598Z,58.59
2023-05-10T07:49:47.188Z,58.84
2023-05-10T07:56:18.557Z,60.39
2023-05-10T07:59:28.870Z,60.40
2023-05-10T08:02:39.967Z,59.14
2023-05-10T08:05:54.824Z,58.99
2023-05-10T08:08:59.974Z,59.41
2023-05-10T08:12:05.564Z,59.01
2023-05-10T08:15:33.827Z,59.00
2023-05-10T08:22:09.108Z,56.69
2023-05-10T08:28:49.406Z,55.01
2023-05-10T08:35:27.307Z,53.71
2023-05-10T08:38:53.694Z,52.60
2023-05-10T08:42:18.856Z,51.99
2023-05-10T08:45:26.328Z,51.76
2023-05-10T08:48:30.779Z,50.98
2023-05-10T08:51:43.804Z,50.90
2023-05-10T09:00:46.819Z,51.83
2023-05-10T09:08:55.399Z,51.03
2023-05-10T09:16:21.579Z,56.86
2023-05-10T09:19:01.358Z,55.74
2023-05-10T09:22:09.085Z,56.35
2023-05-10T09:39:15.799Z,49.33
2023-05-10T09:53:00.469Z,49.76
2023-05-10T09:58:45.785Z,53.81
2023-05-10T10:01:50.641Z,53.80
2023-05-10T10:04:54.743Z,55.05
2023-05-10T10:07:59.339Z,53.21
2023-05-10T10:11:03.292Z,52.45
2023-05-10T10:14:07.582Z,54.08
2023-05-10T10:17:11.461Z,52.93
2023-05-10T10:20:15.849Z,55.47
2023-05-10T10:23:21.138Z,57.41
2023-05-10T10:26:25.245Z,56.66
2023-05-10T10:29:29.452Z,58.43
2023-05-10T10:32:34.354Z,56.60
2023-05-10T10:35:38.419Z,58.47
2023-05-10T10:38:42.839Z,58.99
2023-05-10T10:41:46.795Z,57.98
2023-05-10T10:44:52.419Z,58.38
2023-05-10T10:47:57.942Z,56.98
2023-05-10T10:51:01.824Z,55.93
2023-05-10T10:54:06.182Z,56.06
2023-05-10T10:57:09.979Z,53.83
2023-05-10T11:00:14.071Z,54.41
2023-05-10T11:03:18.274Z,56.41
2023-05-10T11:06:22.170Z,52.77
2023-05-10T11:09:26.342Z,53.66
2023-05-10T11:12:30.268Z,51.14
2023-05-10T11:15:34.056Z,51.90
2023-05-10T11:18:38.555Z,50.96
2023-05-10T11:21:45.625Z,53.85
2023-05-10T11:24:50.247Z,54.65
2023-05-10T11:31:18.885Z,51.78
2023-05-10T11:34:23.323Z,51.89
2023-05-10T11:37:30.610Z,52.82
2023-05-10T11:40:36.604Z,56.86
2023-05-10T11:43:47.778Z,53.93
2023-05-10T11:49:59.917Z,50.22
2023-05-10T11:53:09.468Z,48.42
2023-05-10T11:56:13.611Z,47.91
2023-05-10T12:02:52.289Z,50.77
2023-05-10T12:06:02.437Z,48.35
2023-05-10T12:09:06.674Z,49.19
2023-05-10T12:15:19.250Z,48.78
2023-05-10T12:18:23.344Z,49.07
2023-05-10T12:21:28.343Z,49.69
2023-05-10T12:24:33.279Z,48.65
2023-05-10T13:00:57.830Z,45.29
2023-05-10T13:04:03.802Z,46.33
2023-05-10T13:10:33.215Z,46.50
2023-05-10T13:13:37.720Z,47.41
2023-05-10T13:16:45.707Z,49.76
2023-05-10T13:19:51.077Z,49.65
2023-05-10T13:23:21.041Z,49.27
2023-05-10T13:26:24.837Z,50.38
2023-05-10T13:29:30.643Z,51.46
2023-05-10T13:32:51.893Z,50.54
2023-05-10T13:36:08.528Z,50.08
2023-05-10T13:39:16.552Z,48.21
2023-05-10T13:42:20.865Z,48.40
2023-05-10T13:45:25.568Z,49.17
2023-05-10T13:48:32.921Z,46.04
2023-05-10T13:51:55.806Z,46.32
2023-05-10T13:55:29.546Z,46.34
2023-05-10T14:02:05.366Z,46.26
2023-05-10T14:08:34.426Z,47.01
2023-05-10T14:11:39.575Z,49.05
2023-05-10T14:25:46.063Z,47.31
2023-05-10T14:32:16.874Z,47.88
2023-05-10T14:38:41.184Z,47.65
2023-05-10T14:41:46.438Z,47.26
2023-05-10T14:44:52.207Z,45.78
2023-05-10T14:47:56.684Z,46.56
2023-05-10T14:51:23.862Z,44.58
2023-05-10T14:54:29.140Z,45.94
2023-05-10T14:57:36.136Z,45.08
2023-05-10T15:00:41.624Z,45.31
2023-05-10T15:03:46.223Z,45.71
2023-05-10T15:06:51.851Z,44.73
2023-05-10T15:09:59.317Z,46.09
2023-05-10T15:13:03.607Z,46.61
2023-05-10T15:16:11.699Z,46.40
2023-05-10T15:19:18.205Z,46.42
2023-05-10T15:22:23.358Z,47.29
2023-05-10T15:25:27.605Z,45.16
2023-05-10T15:28:32.490Z,45.48
2023-05-10T15:31:37.758Z,45.34
2023-05-10T15:34:43.046Z,45.49
2023-05-10T15:37:49.162Z,47.97
2023-05-10T15:41:03.362Z,48.26
2023-05-10T15:44:09.015Z,47.77
2023-05-10T15:47:17.645Z,48.67
2023-05-10T15:50:22.015Z,47.31
2023-05-10T15:53:25.922Z,49.43
2023-05-10T16:06:50.677Z,46.79
2023-05-10T16:46:48.531Z,47.58
2023-05-10T16:49:57.071Z,46.64
2023-05-10T16:53:01.166Z,46.60
2023-05-10T16:56:06.587Z,46.46
2023-05-10T16:59:10.838Z,49.49
2023-05-10T17:02:15.050Z,49.38
2023-05-10T17:05:19.124Z,50.15
2023-05-10T17:08:23.044Z,49.12
2023-05-10T17:11:27.212Z,48.93
2023-05-10T17:14:31.125Z,49.63
2023-05-10T17:17:35.195Z,49.02
2023-05-10T17:20:39.138Z,48.49
2023-05-10T17:23:43.123Z,49.03
2023-05-10T17:26:46.916Z,48.82
2023-05-10T17:29:51.188Z,49.00
2023-05-10T17:32:55.298Z,49.71
2023-05-10T17:35:59.164Z,49.04
2023-05-10T17:39:04.373Z,51.09
2023-05-10T17:42:08.198Z,54.01
2023-05-10T17:45:12.647Z,52.60
2023-05-10T17:48:18.806Z,53.88
2023-05-10T17:51:23.943Z,54.75
2023-05-10T17:54:27.832Z,54.30
2023-05-10T17:57:31.626Z,54.64
2023-05-10T18:00:35.546Z,54.96
2023-05-10T18:03:39.671Z,53.42
2023-05-10T18:06:43.704Z,54.13
2023-05-10T18:09:47.690Z,53.66
2023-05-10T18:12:54.884Z,54.19
2023-05-10T18:16:00.638Z,53.82
2023-05-10T18:19:05.205Z,54.37
2023-05-10T18:22:10.871Z,54.53
2023-05-10T18:25:18.598Z,54.02
2023-05-10T18:28:24.114Z,53.91
2023-05-10T18:31:41.145Z,54.19
2023-05-10T18:34:53.221Z,53.12
2023-05-10T18:37:58.238Z,54.09
2023-05-10T18:41:02.049Z,53.95
2023-05-10T18:44:05.807Z,53.46
2023-05-10T18:47:10.911Z,51.82
2023-05-10T18:50:14.805Z,52.73
2023-05-10T18:53:18.671Z,52.99
2023-05-10T18:59:44.536Z,52.16
2023-05-10T19:02:49.007Z,52.41
2023-05-10T19:05:53.430Z,52.46
2023-05-10T19:08:57.226Z,52.67
2023-05-10T19:12:01.090Z,53.61
2023-05-10T19:15:05.057Z,54.06
2023-05-10T19:18:09.793Z,53.48
2023-05-10T19:21:14.058Z,51.46
2023-05-10T19:24:17.966Z,51.26
2023-05-10T19:27:24.806Z,50.89
2023-05-10T19:30:30.240Z,50.87
2023-05-10T19:33:34.604Z,50.37
2023-05-10T19:36:38.276Z,55.23
2023-05-10T19:39:42.538Z,56.94
2023-05-10T19:42:46.680Z,57.17
2023-05-10T19:45:50.827Z,55.64
2023-05-10T19:48:54.764Z,56.75
2023-05-10T19:51:58.969Z,56.69
2023-05-10T19:55:03.134Z,58.45
2023-05-10T19:58:07.049Z,57.53
2023-05-10T20:01:10.976Z,59.56
2023-05-10T20:04:14.910Z,60.24
2023-05-10T20:07:20.741Z,59.52
2023-05-10T20:10:26.892Z,59.73
2023-05-10T20:13:31.919Z,59.97
2023-05-10T20:16:35.996Z,56.87
2023-05-10T20:19:41.409Z,56.46
2023-05-10T20:22:56.108Z,55.82
2023-05-10T20:26:02.538Z,56.19
2023-05-10T20:29:06.196Z,53.94
2023-05-10T20:32:26.100Z,53.39
2023-05-10T20:35:32.820Z,54.19
2023-05-10T20:38:36.885Z,53.93
2023-05-10T20:41:40.695Z,54.23
2023-05-10T20:44:44.533Z,54.89
2023-05-10T20:47:48.266Z,54.25
2023-05-10T20:50:52.253Z,54.35
2023-05-10T20:53:56.506Z,54.28
2023-05-10T20:57:00.267Z,54.35
2023-05-10T21:00:04.586Z,55.50
2023-05-10T21:03:08.711Z,55.44
2023-05-10T21:06:12.855Z,54.40
2023-05-10T21:09:16.833Z,57.38
2023-05-10T21:12:20.776Z,57.27
2023-05-10T21:15:24.998Z,55.77
2023-05-10T21:18:29.406Z,56.21
2023-05-10T21:21:33.444Z,58.58
2023-05-10T21:24:37.662Z,58.69
2023-05-10T21:27:41.659Z,58.38
2023-05-10T21:30:45.914Z,59.82
2023-05-10T21:33:50.169Z,57.65
2023-05-10T21:36:54.339Z,58.27
2023-05-10T21:39:58.485Z,59.55
2023-05-10T21:43:02.532Z,60.01
2023-05-10T21:46:06.519Z,61.70
2023-05-10T21:49:10.330Z,63.33
2023-05-10T21:52:14.316Z,61.85
2023-05-10T21:55:18.029Z,64.00
2023-05-10T21:58:22.013Z,65.25
2023-05-10T22:01:26.233Z,66.00
2023-05-10T22:04:30.314Z,63.84
2023-05-10T22:07:34.592Z,65.76
2023-05-10T22:10:38.831Z,64.97
2023-05-10T22:13:42.640Z,61.86
2023-05-10T22:16:46.652Z,62.93
2023-05-10T22:19:50.719Z,61.69
2023-05-10T22:22:54.457Z,61.27
2023-05-10T22:25:58.156Z,61.67
2023-05-10T22:29:02.182Z,60.83
2023-05-10T22:32:06.298Z,61.29
2023-05-10T22:35:10.031Z,60.98
2023-05-10T22:38:14.436Z,61.52
2023-05-10T22:41:18.669Z,62.39
2023-05-10T22:44:22.753Z,61.40
2023-05-10T22:47:26.789Z,60.06
2023-05-10T22:50:30.771Z,58.77
2023-05-10T22:53:34.798Z,59.78
2023-05-10T22:56:39.096Z,59.19
2023-05-10T22:59:43.359Z,59.47
2023-05-10T23:02:47.261Z,58.63
2023-05-10T23:05:51.368Z,58.85
2023-05-10T23:08:55.435Z,58.22
2023-05-10T23:11:59.704Z,58.37
2023-05-10T23:15:03.760Z,59.39
2023-05-10T23:18:07.915Z,60.50
2023-05-10T23:21:12.037Z,60.31
2023-05-10T23:24:15.743Z,59.95
2023-05-10T23:27:19.856Z,60.04
2023-05-10T23:31:00.774Z,61.88
2023-05-10T23:34:02.956Z,61.41
2023-05-10T23:37:06.876Z,61.84
2023-05-10T23:40:10.941Z,61.76
2023-05-10T23:43:15.188Z,62.41
2023-05-10T23:46:19.079Z,63.43
2023-05-10T23:49:22.913Z,63.82
2023-05-10T23:52:26.899Z,63.19
2023-05-10T23:55:30.944Z,62.32
2023-05-10T23:58:35.021Z,60.28
